Irving South's Hourly Summary for Thursday, May 10, 2018
Hour Temp
(f)
RH
(%)
Solar Rad.
(MJ/m2)
Rainfall
(in)
Wind
(mph)
5/10/2018 12:00 AM 74 49 0 0 0.65
5/10/2018 1:00 AM 74 46 0 0 2.09
5/10/2018 2:00 AM 73 47 0 0 2.76
5/10/2018 3:00 AM 72 49 0 0 3.92
5/10/2018 4:00 AM 70 53 0 0 4.56
5/10/2018 5:00 AM 69 56 0 0 3.62
5/10/2018 6:00 AM 67 63 0 0 3.75
5/10/2018 7:00 AM 66 71 0.01 0 0.91
5/10/2018 8:00 AM 65 79 0.12 0 1.1
5/10/2018 9:00 AM 68 73 0.94 0 4.34
5/10/2018 10:00 AM 71 65 1.97 0 5.4
5/10/2018 11:00 AM 74 51 2.69 0 4.51
5/10/2018 12:00 PM 77 47 3.25 0 5.16
5/10/2018 1:00 PM 79 44 3.54 0 6.15
5/10/2018 2:00 PM 81 40 3.61 0 5.28
5/10/2018 3:00 PM 83 41 3.27 0 5.53
5/10/2018 4:00 PM 84 35 2.95 0 4.22
5/10/2018 5:00 PM 85 34 2.39 0 4.95
5/10/2018 6:00 PM 84 38 1.75 0 4.65
5/10/2018 7:00 PM 84 40 0.63 0 3.65
5/10/2018 8:00 PM 82 41 0.25 0 3.01
5/10/2018 9:00 PM 79 44 0.01 0 1.71
5/10/2018 10:00 PM 77 48 0 0 0.88
5/10/2018 11:00 PM 76 53 0 0 1.09
Data Summary 75 50 27.38 0.00 3.50